sensor_id;sensor_type;location;lat;lon;timestamp;pressure;altitude;pressure_sealevel;temperature;humidity
31331;BME280;34067;39.548;-76.088;2023-01-27T00:01:15;101189.70;;;2.96;48.40
31331;BME280;34067;39.548;-76.088;2023-01-27T00:03:44;101194.58;;;3.37;48.71
31331;BME280;34067;39.548;-76.088;2023-01-27T00:06:12;101191.62;;;3.33;48.67
31331;BME280;34067;39.548;-76.088;2023-01-27T00:08:41;101199.24;;;3.86;48.43
31331;BME280;34067;39.548;-76.088;2023-01-27T00:11:09;101199.95;;;3.53;47.31
31331;BME280;34067;39.548;-76.088;2023-01-27T00:13:36;101203.12;;;2.99;47.22
31331;BME280;34067;39.548;-76.088;2023-01-27T00:16:04;101214.29;;;4.29;46.12
31331;BME280;34067;39.548;-76.088;2023-01-27T00:18:33;101215.64;;;3.86;46.57
31331;BME280;34067;39.548;-76.088;2023-01-27T00:21:01;101222.60;;;3.01;46.50
31331;BME280;34067;39.548;-76.088;2023-01-27T00:23:30;101227.84;;;4.01;45.92
31331;BME280;34067;39.548;-76.088;2023-01-27T00:25:58;101230.05;;;3.14;46.90
31331;BME280;34067;39.548;-76.088;2023-01-27T00:28:27;101231.60;;;4.10;45.74
31331;BME280;34067;39.548;-76.088;2023-01-27T00:30:55;101232.91;;;4.58;44.94
31331;BME280;34067;39.548;-76.088;2023-01-27T00:33:23;101234.84;;;4.08;44.94
31331;BME280;34067;39.548;-76.088;2023-01-27T00:35:56;101237.30;;;3.95;45.30
31331;BME280;34067;39.548;-76.088;2023-01-27T00:38:25;101245.34;;;4.31;44.73
31331;BME280;34067;39.548;-76.088;2023-01-27T00:40:54;101250.92;;;4.14;44.94
31331;BME280;34067;39.548;-76.088;2023-01-27T00:43:22;101251.34;;;4.61;44.52
31331;BME280;34067;39.548;-76.088;2023-01-27T00:45:50;101256.59;;;3.98;44.56
31331;BME280;34067;39.548;-76.088;2023-01-27T00:48:18;101253.20;;;3.89;45.55
31331;BME280;34067;39.548;-76.088;2023-01-27T00:50:46;101252.95;;;3.53;45.22
31331;BME280;34067;39.548;-76.088;2023-01-27T00:53:15;101247.88;;;4.64;44.66
31331;BME280;34067;39.548;-76.088;2023-01-27T00:55:43;101247.20;;;4.09;43.98
31331;BME280;34067;39.548;-76.088;2023-01-27T00:58:11;101251.54;;;4.92;43.46
31331;BME280;34067;39.548;-76.088;2023-01-27T01:00:39;101257.49;;;5.16;43.47
31331;BME280;34067;39.548;-76.088;2023-01-27T01:03:09;101263.17;;;4.00;43.92
31331;BME280;34067;39.548;-76.088;2023-01-27T01:05:37;101260.95;;;3.92;44.21
31331;BME280;34067;39.548;-76.088;2023-01-27T01:08:06;101259.28;;;5.09;43.08
31331;BME280;34067;39.548;-76.088;2023-01-27T01:10:36;101263.87;;;3.91;43.74
31331;BME280;34067;39.548;-76.088;2023-01-27T01:13:03;101263.96;;;4.96;42.92
31331;BME280;34067;39.548;-76.088;2023-01-27T01:15:35;101265.15;;;5.55;42.38
31331;BME280;34067;39.548;-76.088;2023-01-27T01:18:03;101262.37;;;4.88;42.31
31331;BME280;34067;39.548;-76.088;2023-01-27T01:20:36;101262.71;;;5.06;42.42
31331;BME280;34067;39.548;-76.088;2023-01-27T01:23:05;101271.49;;;5.34;42.06
31331;BME280;34067;39.548;-76.088;2023-01-27T01:25:34;101272.54;;;5.06;42.17
31331;BME280;34067;39.548;-76.088;2023-01-27T01:28:03;101280.80;;;5.26;42.12
31331;BME280;34067;39.548;-76.088;2023-01-27T01:30:33;101283.82;;;5.13;42.98
31331;BME280;34067;39.548;-76.088;2023-01-27T01:33:03;101296.02;;;3.99;43.02
31331;BME280;34067;39.548;-76.088;2023-01-27T01:35:31;101294.50;;;4.16;42.83
31331;BME280;34067;39.548;-76.088;2023-01-27T01:37:59;101299.14;;;4.46;43.03
31331;BME280;34067;39.548;-76.088;2023-01-27T01:40:27;101302.38;;;4.36;43.34
31331;BME280;34067;39.548;-76.088;2023-01-27T01:42:58;101302.54;;;4.54;42.93
31331;BME280;34067;39.548;-76.088;2023-01-27T01:45:43;101317.49;;;3.47;43.59
31331;BME280;34067;39.548;-76.088;2023-01-27T01:48:18;101310.56;;;3.93;44.36
31331;BME280;34067;39.548;-76.088;2023-01-27T01:50:51;101312.20;;;4.55;43.54
31331;BME280;34067;39.548;-76.088;2023-01-27T01:53:23;101316.75;;;5.19;43.24
31331;BME280;34067;39.548;-76.088;2023-01-27T01:55:52;101324.84;;;3.39;43.83
31331;BME280;34067;39.548;-76.088;2023-01-27T01:58:21;101326.04;;;2.54;44.44
31331;BME280;34067;39.548;-76.088;2023-01-27T02:00:49;101331.12;;;3.45;44.57
31331;BME280;34067;39.548;-76.088;2023-01-27T02:03:17;101336.25;;;4.01;44.02
31331;BME280;34067;39.548;-76.088;2023-01-27T02:05:45;101340.33;;;4.28;43.68
31331;BME280;34067;39.548;-76.088;2023-01-27T02:08:18;101343.47;;;3.58;43.28
31331;BME280;34067;39.548;-76.088;2023-01-27T02:10:48;101343.67;;;3.68;43.68
31331;BME280;34067;39.548;-76.088;2023-01-27T02:13:17;101346.74;;;3.69;43.64
31331;BME280;34067;39.548;-76.088;2023-01-27T02:15:45;101350.28;;;3.35;43.22
31331;BME280;34067;39.548;-76.088;2023-01-27T02:18:13;101347.52;;;3.10;43.61
31331;BME280;34067;39.548;-76.088;2023-01-27T02:20:43;101351.14;;;4.12;43.31
31331;BME280;34067;39.548;-76.088;2023-01-27T02:23:25;101354.18;;;3.78;43.39
31331;BME280;34067;39.548;-76.088;2023-01-27T02:25:58;101356.71;;;3.15;43.79
31331;BME280;34067;39.548;-76.088;2023-01-27T02:28:30;101358.85;;;3.78;43.26
31331;BME280;34067;39.548;-76.088;2023-01-27T02:30:58;101358.42;;;2.72;43.16
31331;BME280;34067;39.548;-76.088;2023-01-27T02:33:27;101361.16;;;3.59;43.12
31331;BME280;34067;39.548;-76.088;2023-01-27T02:36:00;101366.81;;;4.23;42.35
31331;BME280;34067;39.548;-76.088;2023-01-27T02:38:34;101373.74;;;3.81;42.21
31331;BME280;34067;39.548;-76.088;2023-01-27T02:41:08;101379.20;;;3.49;42.30
31331;BME280;34067;39.548;-76.088;2023-01-27T02:43:38;101383.72;;;2.97;43.49
31331;BME280;34067;39.548;-76.088;2023-01-27T02:46:06;101380.91;;;3.28;43.52
31331;BME280;34067;39.548;-76.088;2023-01-27T02:48:34;101380.92;;;3.34;42.90
31331;BME280;34067;39.548;-76.088;2023-01-27T02:51:03;101386.79;;;2.68;44.17
31331;BME280;34067;39.548;-76.088;2023-01-27T02:53:30;101384.70;;;1.76;44.63
31331;BME280;34067;39.548;-76.088;2023-01-27T02:55:59;101386.57;;;2.49;44.26
31331;BME280;34067;39.548;-76.088;2023-01-27T02:58:27;101382.83;;;2.22;44.90
31331;BME280;34067;39.548;-76.088;2023-01-27T03:00:56;101380.86;;;2.44;45.26
31331;BME280;34067;39.548;-76.088;2023-01-27T03:03:24;101377.26;;;1.76;45.47
31331;BME280;34067;39.548;-76.088;2023-01-27T03:05:52;101371.12;;;1.60;45.86
31331;BME280;34067;39.548;-76.088;2023-01-27T03:08:21;101375.08;;;1.13;46.34
31331;BME280;34067;39.548;-76.088;2023-01-27T03:10:51;101373.96;;;1.03;46.41
31331;BME280;34067;39.548;-76.088;2023-01-27T03:13:21;101379.31;;;2.00;45.82
31331;BME280;34067;39.548;-76.088;2023-01-27T03:15:50;101379.05;;;1.46;46.48
31331;BME280;34067;39.548;-76.088;2023-01-27T03:18:18;101376.29;;;0.89;47.34
31331;BME280;34067;39.548;-76.088;2023-01-27T03:20:48;101372.89;;;0.64;47.94
31331;BME280;34067;39.548;-76.088;2023-01-27T03:23:17;101377.38;;;0.87;47.64
31331;BME280;34067;39.548;-76.088;2023-01-27T03:25:47;101378.72;;;1.32;47.36
31331;BME280;34067;39.548;-76.088;2023-01-27T03:28:15;101386.02;;;0.72;47.56
31331;BME280;34067;39.548;-76.088;2023-01-27T03:30:44;101383.82;;;0.90;47.60
31331;BME280;34067;39.548;-76.088;2023-01-27T03:33:13;101386.79;;;1.24;47.10
31331;BME280;34067;39.548;-76.088;2023-01-27T03:35:41;101393.73;;;0.81;48.30
31331;BME280;34067;39.548;-76.088;2023-01-27T03:38:12;101387.70;;;1.51;47.50
31331;BME280;34067;39.548;-76.088;2023-01-27T03:40:41;101392.58;;;0.82;47.83
31331;BME280;34067;39.548;-76.088;2023-01-27T03:43:09;101387.72;;;1.42;47.31
31331;BME280;34067;39.548;-76.088;2023-01-27T03:45:36;101396.33;;;2.06;46.56
31331;BME280;34067;39.548;-76.088;2023-01-27T03:48:05;101405.06;;;0.73;47.61
31331;BME280;34067;39.548;-76.088;2023-01-27T03:50:33;101398.52;;;1.37;47.00
31331;BME280;34067;39.548;-76.088;2023-01-27T03:53:01;101399.39;;;0.96;47.95
31331;BME280;34067;39.548;-76.088;2023-01-27T03:55:30;101391.96;;;2.00;46.29
31331;BME280;34067;39.548;-76.088;2023-01-27T03:57:58;101395.96;;;1.67;45.77
31331;BME280;34067;39.548;-76.088;2023-01-27T04:00:28;101395.00;;;0.97;45.90
31331;BME280;34067;39.548;-76.088;2023-01-27T04:02:56;101404.44;;;1.02;46.56
31331;BME280;34067;39.548;-76.088;2023-01-27T04:05:25;101400.43;;;1.71;46.21
31331;BME280;34067;39.548;-76.088;2023-01-27T04:07:52;101398.29;;;1.25;46.51
31331;BME280;34067;39.548;-76.088;2023-01-27T04:10:20;101396.86;;;1.36;45.44
31331;BME280;34067;39.548;-76.088;2023-01-27T04:12:48;101407.83;;;0.97;46.01
31331;BME280;34067;39.548;-76.088;2023-01-27T04:15:17;101413.14;;;1.62;45.57
31331;BME280;34067;39.548;-76.088;2023-01-27T04:17:45;101413.58;;;2.59;45.33
31331;BME280;34067;39.548;-76.088;2023-01-27T04:20:14;101422.06;;;1.94;45.71
31331;BME280;34067;39.548;-76.088;2023-01-27T04:22:42;101425.17;;;2.61;44.89
31331;BME280;34067;39.548;-76.088;2023-01-27T04:25:10;101428.84;;;2.28;43.89
31331;BME280;34067;39.548;-76.088;2023-01-27T04:27:38;101431.50;;;3.50;42.96
31331;BME280;34067;39.548;-76.088;2023-01-27T04:30:07;101434.59;;;3.25;43.00
31331;BME280;34067;39.548;-76.088;2023-01-27T04:32:36;101438.01;;;3.57;42.14
31331;BME280;34067;39.548;-76.088;2023-01-27T04:35:05;101432.13;;;3.73;41.98
31331;BME280;34067;39.548;-76.088;2023-01-27T04:37:33;101438.95;;;3.36;41.85
31331;BME280;34067;39.548;-76.088;2023-01-27T04:40:01;101448.86;;;3.30;42.14
31331;BME280;34067;39.548;-76.088;2023-01-27T04:42:30;101458.92;;;3.81;42.03
31331;BME280;34067;39.548;-76.088;2023-01-27T04:44:57;101460.45;;;3.01;42.08
31331;BME280;34067;39.548;-76.088;2023-01-27T04:47:25;101456.82;;;3.85;41.66
31331;BME280;34067;39.548;-76.088;2023-01-27T04:49:53;101459.42;;;3.44;41.51
31331;BME280;34067;39.548;-76.088;2023-01-27T04:52:21;101456.17;;;4.12;41.34
31331;BME280;34067;39.548;-76.088;2023-01-27T04:54:49;101461.06;;;3.49;42.51
31331;BME280;34067;39.548;-76.088;2023-01-27T04:57:18;101459.99;;;4.13;41.25
31331;BME280;34067;39.548;-76.088;2023-01-27T04:59:46;101457.18;;;3.69;41.51
31331;BME280;34067;39.548;-76.088;2023-01-27T05:02:14;101462.93;;;3.69;41.74
31331;BME280;34067;39.548;-76.088;2023-01-27T05:04:43;101464.89;;;3.00;42.36
31331;BME280;34067;39.548;-76.088;2023-01-27T05:07:11;101466.09;;;3.91;42.51
31331;BME280;34067;39.548;-76.088;2023-01-27T05:09:39;101467.03;;;3.08;42.52
31331;BME280;34067;39.548;-76.088;2023-01-27T05:12:07;101467.53;;;3.35;43.26
31331;BME280;34067;39.548;-76.088;2023-01-27T05:14:36;101472.90;;;3.46;42.64
31331;BME280;34067;39.548;-76.088;2023-01-27T05:17:04;101472.62;;;3.52;42.57
31331;BME280;34067;39.548;-76.088;2023-01-27T05:19:32;101481.42;;;2.42;43.04
31331;BME280;34067;39.548;-76.088;2023-01-27T05:22:00;101485.99;;;2.28;43.43
31331;BME280;34067;39.548;-76.088;2023-01-27T05:24:27;101488.09;;;2.39;44.36
31331;BME280;34067;39.548;-76.088;2023-01-27T05:26:56;101483.89;;;2.31;44.35
31331;BME280;34067;39.548;-76.088;2023-01-27T05:29:23;101481.60;;;2.26;44.46
31331;BME280;34067;39.548;-76.088;2023-01-27T05:31:52;101483.71;;;1.53;45.28
31331;BME280;34067;39.548;-76.088;2023-01-27T05:34:19;101485.97;;;2.76;44.33
31331;BME280;34067;39.548;-76.088;2023-01-27T05:36:48;101483.57;;;1.79;44.39
31331;BME280;34067;39.548;-76.088;2023-01-27T05:39:17;101482.13;;;2.45;44.10
31331;BME280;34067;39.548;-76.088;2023-01-27T05:41:44;101485.14;;;2.73;43.80
31331;BME280;34067;39.548;-76.088;2023-01-27T05:44:13;101487.44;;;1.76;44.32
31331;BME280;34067;39.548;-76.088;2023-01-27T05:46:41;101490.19;;;2.34;44.39
31331;BME280;34067;39.548;-76.088;2023-01-27T05:49:09;101500.75;;;2.55;43.73
31331;BME280;34067;39.548;-76.088;2023-01-27T05:51:38;101502.80;;;2.91;44.51
31331;BME280;34067;39.548;-76.088;2023-01-27T05:54:07;101508.24;;;2.95;43.95
31331;BME280;34067;39.548;-76.088;2023-01-27T05:56:35;101510.21;;;3.13;43.80
31331;BME280;34067;39.548;-76.088;2023-01-27T05:59:03;101510.01;;;2.52;44.25
31331;BME280;34067;39.548;-76.088;2023-01-27T06:03:11;101514.87;;;2.51;43.96
31331;BME280;34067;39.548;-76.088;2023-01-27T06:05:48;101524.95;;;2.15;44.18
31331;BME280;34067;39.548;-76.088;2023-01-27T06:08:16;101528.74;;;3.39;43.28
31331;BME280;34067;39.548;-76.088;2023-01-27T06:10:44;101531.20;;;2.05;43.92
31331;BME280;34067;39.548;-76.088;2023-01-27T06:13:13;101535.38;;;2.84;43.97
31331;BME280;34067;39.548;-76.088;2023-01-27T06:15:43;101541.25;;;2.08;43.75
31331;BME280;34067;39.548;-76.088;2023-01-27T06:18:12;101548.80;;;2.36;43.89
31331;BME280;34067;39.548;-76.088;2023-01-27T06:20:41;101551.16;;;2.28;44.47
31331;BME280;34067;39.548;-76.088;2023-01-27T06:23:11;101550.95;;;2.64;43.80
31331;BME280;34067;39.548;-76.088;2023-01-27T06:25:40;101554.68;;;2.51;43.63
31331;BME280;34067;39.548;-76.088;2023-01-27T06:28:09;101557.44;;;3.46;43.93
31331;BME280;34067;39.548;-76.088;2023-01-27T06:30:39;101558.01;;;3.72;43.36
31331;BME280;34067;39.548;-76.088;2023-01-27T06:33:07;101557.57;;;2.76;43.35
31331;BME280;34067;39.548;-76.088;2023-01-27T06:35:36;101564.81;;;3.37;43.16
31331;BME280;34067;39.548;-76.088;2023-01-27T06:38:06;101566.83;;;3.25;43.24
31331;BME280;34067;39.548;-76.088;2023-01-27T06:40:35;101566.00;;;2.58;43.83
31331;BME280;34067;39.548;-76.088;2023-01-27T06:43:03;101569.39;;;2.86;43.78
31331;BME280;34067;39.548;-76.088;2023-01-27T06:45:30;101573.25;;;3.29;43.24
31331;BME280;34067;39.548;-76.088;2023-01-27T06:47:59;101581.40;;;2.85;43.85
31331;BME280;34067;39.548;-76.088;2023-01-27T06:50:28;101579.65;;;2.42;44.15
31331;BME280;34067;39.548;-76.088;2023-01-27T06:53:00;101581.03;;;2.93;44.10
31331;BME280;34067;39.548;-76.088;2023-01-27T06:55:29;101580.52;;;2.63;44.31
31331;BME280;34067;39.548;-76.088;2023-01-27T06:57:57;101579.29;;;2.59;44.47
31331;BME280;34067;39.548;-76.088;2023-01-27T07:00:25;101584.06;;;2.13;44.88
31331;BME280;34067;39.548;-76.088;2023-01-27T07:02:54;101586.31;;;1.52;45.36
31331;BME280;34067;39.548;-76.088;2023-01-27T07:05:23;101589.68;;;1.64;46.10
31331;BME280;34067;39.548;-76.088;2023-01-27T07:07:51;101592.00;;;2.34;45.08
31331;BME280;34067;39.548;-76.088;2023-01-27T07:10:19;101603.82;;;1.81;45.66
31331;BME280;34067;39.548;-76.088;2023-01-27T07:12:47;101607.20;;;1.90;45.84
31331;BME280;34067;39.548;-76.088;2023-01-27T07:15:16;101609.33;;;0.83;46.77
31331;BME280;34067;39.548;-76.088;2023-01-27T07:17:44;101613.11;;;0.83;47.55
31331;BME280;34067;39.548;-76.088;2023-01-27T07:20:12;101613.65;;;1.64;46.95
31331;BME280;34067;39.548;-76.088;2023-01-27T07:22:40;101611.45;;;1.86;47.14
31331;BME280;34067;39.548;-76.088;2023-01-27T07:25:08;101606.11;;;1.92;47.07
31331;BME280;34067;39.548;-76.088;2023-01-27T07:27:36;101606.83;;;1.58;47.33
31331;BME280;34067;39.548;-76.088;2023-01-27T07:30:05;101604.90;;;1.14;48.47
31331;BME280;34067;39.548;-76.088;2023-01-27T07:32:33;101606.22;;;1.85;48.05
31331;BME280;34067;39.548;-76.088;2023-01-27T07:35:01;101608.56;;;1.86;47.98
31331;BME280;34067;39.548;-76.088;2023-01-27T07:37:29;101615.23;;;0.99;47.98
31331;BME280;34067;39.548;-76.088;2023-01-27T07:39:57;101614.67;;;2.96;46.81
31331;BME280;34067;39.548;-76.088;2023-01-27T07:42:26;101624.73;;;1.56;48.46
31331;BME280;34067;39.548;-76.088;2023-01-27T07:44:53;101631.23;;;1.19;48.11
31331;BME280;34067;39.548;-76.088;2023-01-27T07:47:21;101628.41;;;1.35;48.09
31331;BME280;34067;39.548;-76.088;2023-01-27T07:49:49;101629.73;;;0.97;48.94
31331;BME280;34067;39.548;-76.088;2023-01-27T07:52:17;101628.57;;;2.76;47.56
31331;BME280;34067;39.548;-76.088;2023-01-27T07:54:44;101626.93;;;2.29;46.82
31331;BME280;34067;39.548;-76.088;2023-01-27T07:57:13;101626.29;;;2.24;46.64
31331;BME280;34067;39.548;-76.088;2023-01-27T07:59:40;101627.30;;;1.80;46.87
31331;BME280;34067;39.548;-76.088;2023-01-27T08:02:09;101627.68;;;1.06;47.58
31331;BME280;34067;39.548;-76.088;2023-01-27T08:04:37;101626.02;;;1.15;48.05
31331;BME280;34067;39.548;-76.088;2023-01-27T08:07:05;101624.40;;;1.15;47.85
31331;BME280;34067;39.548;-76.088;2023-01-27T08:09:33;101626.78;;;0.51;47.58
31331;BME280;34067;39.548;-76.088;2023-01-27T08:12:00;101632.07;;;-0.32;49.16
31331;BME280;34067;39.548;-76.088;2023-01-27T08:14:28;101631.01;;;0.95;48.41
31331;BME280;34067;39.548;-76.088;2023-01-27T08:16:55;101632.11;;;0.68;48.45
31331;BME280;34067;39.548;-76.088;2023-01-27T08:19:23;101636.21;;;0.71;49.12
31331;BME280;34067;39.548;-76.088;2023-01-27T08:21:51;101640.52;;;1.27;48.24
31331;BME280;34067;39.548;-76.088;2023-01-27T08:24:19;101643.97;;;1.56;48.27
31331;BME280;34067;39.548;-76.088;2023-01-27T08:26:46;101636.05;;;1.07;48.00
31331;BME280;34067;39.548;-76.088;2023-01-27T08:29:14;101632.26;;;2.41;46.83
31331;BME280;34067;39.548;-76.088;2023-01-27T08:31:42;101630.06;;;1.70;46.90
31331;BME280;34067;39.548;-76.088;2023-01-27T08:34:10;101634.88;;;0.63;47.56
31331;BME280;34067;39.548;-76.088;2023-01-27T08:36:40;101633.48;;;1.20;48.27
31331;BME280;34067;39.548;-76.088;2023-01-27T08:39:08;101631.50;;;-0.31;48.73
31331;BME280;34067;39.548;-76.088;2023-01-27T08:41:37;101631.36;;;0.65;48.37
31331;BME280;34067;39.548;-76.088;2023-01-27T08:44:06;101633.17;;;1.79;47.27
31331;BME280;34067;39.548;-76.088;2023-01-27T08:46:34;101636.11;;;0.93;47.02
31331;BME280;34067;39.548;-76.088;2023-01-27T08:49:03;101629.19;;;2.60;45.54
31331;BME280;34067;39.548;-76.088;2023-01-27T08:51:30;101630.67;;;1.95;45.70
31331;BME280;34067;39.548;-76.088;2023-01-27T08:53:58;101628.62;;;2.27;45.83
31331;BME280;34067;39.548;-76.088;2023-01-27T08:56:25;101630.30;;;2.11;46.05
31331;BME280;34067;39.548;-76.088;2023-01-27T08:58:53;101636.46;;;1.16;47.16
31331;BME280;34067;39.548;-76.088;2023-01-27T09:01:21;101645.76;;;0.92;47.87
31331;BME280;34067;39.548;-76.088;2023-01-27T09:03:49;101648.29;;;0.22;48.59
31331;BME280;34067;39.548;-76.088;2023-01-27T09:06:18;101651.48;;;1.02;48.27
31331;BME280;34067;39.548;-76.088;2023-01-27T09:08:47;101653.42;;;-0.32;49.35
31331;BME280;34067;39.548;-76.088;2023-01-27T09:11:16;101656.87;;;0.40;48.72
31331;BME280;34067;39.548;-76.088;2023-01-27T09:13:43;101660.60;;;1.13;48.29
31331;BME280;34067;39.548;-76.088;2023-01-27T09:16:11;101658.44;;;1.56;47.21
31331;BME280;34067;39.548;-76.088;2023-01-27T09:18:38;101659.00;;;0.79;47.87
31331;BME280;34067;39.548;-76.088;2023-01-27T09:21:07;101660.19;;;0.54;47.62
31331;BME280;34067;39.548;-76.088;2023-01-27T09:23:34;101658.34;;;2.09;46.73
31331;BME280;34067;39.548;-76.088;2023-01-27T09:26:02;101662.21;;;2.08;46.65
31331;BME280;34067;39.548;-76.088;2023-01-27T09:28:31;101666.86;;;2.11;46.22
31331;BME280;34067;39.548;-76.088;2023-01-27T09:30:59;101675.09;;;2.41;45.90
31331;BME280;34067;39.548;-76.088;2023-01-27T09:33:27;101683.69;;;1.32;46.61
31331;BME280;34067;39.548;-76.088;2023-01-27T09:36:01;101687.27;;;2.20;45.99
31331;BME280;34067;39.548;-76.088;2023-01-27T09:38:35;101689.30;;;2.60;45.65
31331;BME280;34067;39.548;-76.088;2023-01-27T09:41:18;101689.93;;;1.97;45.77
31331;BME280;34067;39.548;-76.088;2023-01-27T09:44:02;101686.48;;;2.47;45.23
31331;BME280;34067;39.548;-76.088;2023-01-27T09:46:45;101677.88;;;2.65;45.46
31331;BME280;34067;39.548;-76.088;2023-01-27T09:49:29;101681.82;;;1.52;46.45
31331;BME280;34067;39.548;-76.088;2023-01-27T09:52:13;101684.52;;;2.35;46.32
31331;BME280;34067;39.548;-76.088;2023-01-27T09:54:57;101693.46;;;1.46;46.83
31331;BME280;34067;39.548;-76.088;2023-01-27T09:57:36;101693.97;;;1.66;46.54
31331;BME280;34067;39.548;-76.088;2023-01-27T10:00:23;101693.36;;;2.23;45.77
31331;BME280;34067;39.548;-76.088;2023-01-27T10:03:13;101696.92;;;2.00;46.21
31331;BME280;34067;39.548;-76.088;2023-01-27T10:06:02;101706.39;;;0.62;47.48
31331;BME280;34067;39.548;-76.088;2023-01-27T10:09:02;101707.51;;;1.64;46.71
31331;BME280;34067;39.548;-76.088;2023-01-27T10:11:39;101707.65;;;1.09;46.82
31331;BME280;34067;39.548;-76.088;2023-01-27T10:14:18;101705.04;;;1.91;46.10
31331;BME280;34067;39.548;-76.088;2023-01-27T10:17:01;101709.87;;;1.40;46.72
31331;BME280;34067;39.548;-76.088;2023-01-27T10:19:47;101711.32;;;1.66;46.40
31331;BME280;34067;39.548;-76.088;2023-01-27T10:22:22;101710.23;;;1.70;46.13
31331;BME280;34067;39.548;-76.088;2023-01-27T10:25:04;101717.14;;;1.91;45.89
31331;BME280;34067;39.548;-76.088;2023-01-27T10:27:36;101722.67;;;1.86;45.62
31331;BME280;34067;39.548;-76.088;2023-01-27T10:30:11;101723.58;;;1.75;45.87
31331;BME280;34067;39.548;-76.088;2023-01-27T10:32:44;101722.72;;;0.24;47.29
31331;BME280;34067;39.548;-76.088;2023-01-27T10:35:17;101721.02;;;2.08;46.09
31331;BME280;34067;39.548;-76.088;2023-01-27T10:37:55;101726.84;;;1.62;46.14
31331;BME280;34067;39.548;-76.088;2023-01-27T10:40:34;101726.47;;;1.64;45.95
31331;BME280;34067;39.548;-76.088;2023-01-27T10:43:10;101728.05;;;2.20;45.77
31331;BME280;34067;39.548;-76.088;2023-01-27T10:45:47;101728.91;;;1.65;45.90
31331;BME280;34067;39.548;-76.088;2023-01-27T10:48:28;101735.06;;;1.76;46.91
31331;BME280;34067;39.548;-76.088;2023-01-27T10:51:03;101743.61;;;1.58;46.01
31331;BME280;34067;39.548;-76.088;2023-01-27T10:54:43;101744.35;;;2.37;45.90
31331;BME280;34067;39.548;-76.088;2023-01-27T10:57:18;101738.60;;;2.16;45.66
31331;BME280;34067;39.548;-76.088;2023-01-27T10:59:52;101739.55;;;2.47;45.18
31331;BME280;34067;39.548;-76.088;2023-01-27T11:02:29;101746.11;;;2.25;46.24
31331;BME280;34067;39.548;-76.088;2023-01-27T11:05:00;101746.95;;;1.91;46.78
31331;BME280;34067;39.548;-76.088;2023-01-27T11:07:31;101753.31;;;2.27;45.98
31331;BME280;34067;39.548;-76.088;2023-01-27T11:10:03;101753.15;;;2.76;45.40
31331;BME280;34067;39.548;-76.088;2023-01-27T11:12:34;101755.98;;;1.90;46.29
31331;BME280;34067;39.548;-76.088;2023-01-27T11:15:15;101761.03;;;2.35;46.11
31331;BME280;34067;39.548;-76.088;2023-01-27T11:17:47;101764.38;;;1.90;47.32
31331;BME280;34067;39.548;-76.088;2023-01-27T11:20:26;101768.59;;;1.61;47.58
31331;BME280;34067;39.548;-76.088;2023-01-27T11:22:59;101772.37;;;1.89;47.64
31331;BME280;34067;39.548;-76.088;2023-01-27T11:25:35;101774.52;;;2.02;47.53
31331;BME280;34067;39.548;-76.088;2023-01-27T11:28:18;101776.25;;;1.70;46.67
31331;BME280;34067;39.548;-76.088;2023-01-27T11:30:53;101780.99;;;1.61;45.68
31331;BME280;34067;39.548;-76.088;2023-01-27T11:33:30;101789.79;;;2.17;44.83
31331;BME280;34067;39.548;-76.088;2023-01-27T11:36:06;101793.54;;;2.38;44.71
31331;BME280;34067;39.548;-76.088;2023-01-27T11:38:36;101806.34;;;2.42;45.86
31331;BME280;34067;39.548;-76.088;2023-01-27T11:41:06;101818.11;;;2.34;46.33
31331;BME280;34067;39.548;-76.088;2023-01-27T11:43:34;101826.39;;;1.93;47.38
31331;BME280;34067;39.548;-76.088;2023-01-27T11:46:05;101831.48;;;2.44;48.72
31331;BME280;34067;39.548;-76.088;2023-01-27T11:48:37;101829.02;;;2.15;49.37
31331;BME280;34067;39.548;-76.088;2023-01-27T11:51:13;101833.59;;;1.99;50.86
31331;BME280;34067;39.548;-76.088;2023-01-27T11:53:44;101844.44;;;1.00;52.01
31331;BME280;34067;39.548;-76.088;2023-01-27T11:56:17;101854.09;;;1.22;51.82
31331;BME280;34067;39.548;-76.088;2023-01-27T11:58:52;101860.17;;;1.16;52.15
31331;BME280;34067;39.548;-76.088;2023-01-27T12:01:32;101855.85;;;0.94;50.89
31331;BME280;34067;39.548;-76.088;2023-01-27T12:04:05;101856.82;;;2.31;50.22
31331;BME280;34067;39.548;-76.088;2023-01-27T12:06:42;101855.69;;;1.70;50.04
31331;BME280;34067;39.548;-76.088;2023-01-27T12:09:30;101866.18;;;0.51;51.85
31331;BME280;34067;39.548;-76.088;2023-01-27T12:12:18;101874.70;;;0.68;51.58
31331;BME280;34067;39.548;-76.088;2023-01-27T12:14:48;101877.43;;;1.19;51.90
31331;BME280;34067;39.548;-76.088;2023-01-27T12:19:51;101887.70;;;1.75;52.10
31331;BME280;34067;39.548;-76.088;2023-01-27T12:22:25;101892.82;;;0.94;51.93
31331;BME280;34067;39.548;-76.088;2023-01-27T12:24:58;101899.32;;;1.01;51.71
31331;BME280;34067;39.548;-76.088;2023-01-27T12:27:30;101902.72;;;1.15;50.07
31331;BME280;34067;39.548;-76.088;2023-01-27T12:30:07;101907.75;;;1.92;49.66
31331;BME280;34067;39.548;-76.088;2023-01-27T12:32:46;101914.90;;;1.54;49.28
31331;BME280;34067;39.548;-76.088;2023-01-27T12:35:20;101917.92;;;1.40;50.64
31331;BME280;34067;39.548;-76.088;2023-01-27T12:37:53;101923.92;;;1.06;50.53
31331;BME280;34067;39.548;-76.088;2023-01-27T12:40:24;101930.57;;;1.08;50.59
31331;BME280;34067;39.548;-76.088;2023-01-27T12:43:09;101940.09;;;1.25;50.27
31331;BME280;34067;39.548;-76.088;2023-01-27T12:45:38;101944.78;;;1.86;50.16
31331;BME280;34067;39.548;-76.088;2023-01-27T12:48:23;101943.96;;;1.58;49.70
31331;BME280;34067;39.548;-76.088;2023-01-27T12:51:02;101946.86;;;1.03;49.44
31331;BME280;34067;39.548;-76.088;2023-01-27T12:53:32;101954.27;;;1.09;49.41
31331;BME280;34067;39.548;-76.088;2023-01-27T12:56:09;101965.61;;;1.43;49.78
31331;BME280;34067;39.548;-76.088;2023-01-27T12:58:40;101969.27;;;1.10;49.47
31331;BME280;34067;39.548;-76.088;2023-01-27T13:01:24;101976.60;;;1.07;50.10
31331;BME280;34067;39.548;-76.088;2023-01-27T13:03:56;101983.46;;;0.59;51.00